Time;durP1;ratioP1;P1;durP2;ratioP2;P2;SDS_P1;SDS_P2;PMS_P1;PMS_P2;Temp;Humidity;BMP_temperature;BMP_pressure;BME280_temperature;BME280_humidity;BME280_pressure;Samples;Min_cycle;Max_cycle;Signal;HPM_P1;HPM_P2
2023/01/13 00:00:09;;;;;;;;;;;11.70;99.90;;;;;;5075688;28;20350;-68
2023/01/13 00:02:35;;;;;;;;;;;11.60;99.90;;;;;;5075548;28;19927;-69
2023/01/13 00:05:00;;;;;;;;;;;11.70;99.90;;;;;;5075943;28;19912;-69
2023/01/13 00:07:26;;;;;;;;;;;11.70;99.90;;;;;;5074720;28;19957;-69
2023/01/13 00:09:51;;;;;;;;;;;11.60;99.90;;;;;;5076035;28;19915;-69
2023/01/13 00:12:17;;;;;;;;;;;11.60;99.90;;;;;;5074628;28;19909;-68
2023/01/13 00:14:42;;;;;;;;;;;11.60;99.90;;;;;;5075880;28;20265;-68
2023/01/13 00:17:08;;;;;;;;;;;11.70;99.90;;;;;;5073776;28;19915;-68
2023/01/13 00:19:33;;;;;;;;;;;11.70;99.90;;;;;;5075767;28;20002;-69
2023/01/13 00:21:59;;;;;;;;;;;11.60;99.90;;;;;;5074095;28;19958;-68
2023/01/13 00:24:24;;;;;;;;;;;11.70;99.90;;;;;;5075688;28;19908;-68
2023/01/13 00:26:51;;;;;;;;;;;11.60;99.90;;;;;;5075163;28;19912;-69
2023/01/13 00:29:17;;;;;;;;;;;11.60;99.90;;;;;;5075186;28;20060;-69
2023/01/13 00:31:42;;;;;;;;;;;11.50;99.90;;;;;;5075185;28;19908;-69
2023/01/13 00:34:08;;;;;;;;;;;11.50;99.90;;;;;;5075018;28;19909;-69
2023/01/13 00:36:33;;;;;;;;;;;11.50;99.90;;;;;;5074762;28;19915;-69
2023/01/13 00:38:59;;;;;;;;;;;11.50;99.90;;;;;;5073344;28;19908;-69
2023/01/13 00:41:24;;;;;;;;;;;11.60;99.90;;;;;;5075240;28;19912;-70
2023/01/13 00:43:50;;;;;;;;;;;11.60;99.90;;;;;;5075175;28;19999;-69
2023/01/13 00:46:16;;;;;;;;;;;11.60;99.90;;;;;;5074750;28;20379;-69
2023/01/13 00:48:42;;;;;;;;;;;11.60;99.90;;;;;;5074071;28;19920;-69
2023/01/13 00:51:12;;;;;;;;;;;11.50;99.90;;;;;;5074910;28;19908;-69
2023/01/13 00:53:39;;;;;;;;;;;11.50;99.90;;;;;;5074588;28;20315;-69
2023/01/13 00:56:08;;;;;;;;;;;11.40;99.90;;;;;;5074497;28;20312;-69
2023/01/13 00:58:34;;;;;;;;;;;11.30;99.90;;;;;;5074439;28;19916;-69
2023/01/13 01:01:01;;;;;;;;;;;11.30;99.90;;;;;;5074925;28;19909;-69
2023/01/13 01:03:28;;;;;;;;;;;11.20;99.90;;;;;;5074051;28;19912;-69
2023/01/13 01:05:53;;;;;;;;;;;11.10;99.90;;;;;;5074516;28;19909;-68
2023/01/13 01:08:19;;;;;;;;;;;11.20;99.90;;;;;;5074944;28;19912;-68
2023/01/13 01:10:44;;;;;;;;;;;11.20;99.90;;;;;;5074723;28;19995;-68
2023/01/13 01:13:13;;;;;;;;;;;11.20;99.90;;;;;;5074608;28;19908;-69
2023/01/13 01:15:40;;;;;;;;;;;11.20;99.90;;;;;;5074313;28;21493;-68
2023/01/13 01:18:05;;;;;;;;;;;11.20;99.90;;;;;;5074238;28;20388;-69
2023/01/13 01:20:31;;;;;;;;;;;11.10;99.90;;;;;;5074189;28;19912;-68
2023/01/13 01:22:56;;;;;;;;;;;11.00;99.90;;;;;;5073733;28;20388;-69
2023/01/13 01:25:21;;;;;;;;;;;11.10;99.90;;;;;;5072686;28;20387;-69
2023/01/13 01:27:47;;;;;;;;;;;11.00;99.90;;;;;;5071870;28;19978;-68
2023/01/13 01:30:13;;;;;;;;;;;10.90;99.90;;;;;;5073805;28;19908;-69
2023/01/13 01:32:38;;;;;;;;;;;10.90;99.90;;;;;;5073137;28;19915;-69
2023/01/13 01:35:04;;;;;;;;;;;10.80;99.90;;;;;;5073877;28;20483;-69
2023/01/13 01:37:29;;;;;;;;;;;10.80;99.90;;;;;;5072352;28;19915;-69
2023/01/13 01:39:55;;;;;;;;;;;10.80;99.90;;;;;;5073835;28;19958;-70
2023/01/13 01:45:11;;;;;;;;;;;10.70;99.90;;;;;;5074115;28;19915;-68
2023/01/13 01:47:37;;;;;;;;;;;10.60;99.90;;;;;;5073034;28;19952;-69
2023/01/13 01:50:02;;;;;;;;;;;10.70;99.90;;;;;;5073769;28;20288;-69
2023/01/13 01:52:37;;;;;;;;;;;10.60;99.90;;;;;;5072248;28;19916;-69
2023/01/13 01:55:09;;;;;;;;;;;10.60;99.90;;;;;;5072751;28;20003;-69
2023/01/13 01:57:34;;;;;;;;;;;10.80;99.90;;;;;;5072510;28;19917;-69
2023/01/13 02:00:00;;;;;;;;;;;10.80;99.90;;;;;;5073681;28;20383;-70
2023/01/13 02:02:26;;;;;;;;;;;10.80;99.90;;;;;;5073916;28;19973;-68
2023/01/13 02:04:52;;;;;;;;;;;10.90;99.90;;;;;;5072521;28;19913;-68
2023/01/13 02:07:22;;;;;;;;;;;10.90;99.90;;;;;;5074721;28;19980;-69
2023/01/13 02:09:48;;;;;;;;;;;10.90;99.90;;;;;;5077917;28;19908;-69
2023/01/13 02:12:29;;;;;;;;;;;10.80;99.90;;;;;;5073706;28;19909;-68
2023/01/13 02:15:04;;;;;;;;;;;10.80;99.90;;;;;;5074257;28;19958;-69
2023/01/13 02:17:44;;;;;;;;;;;10.80;99.90;;;;;;5074660;28;19919;-69
2023/01/13 02:20:13;;;;;;;;;;;10.70;99.90;;;;;;5073361;28;19998;-70
2023/01/13 02:22:57;;;;;;;;;;;10.60;99.90;;;;;;5074031;28;19992;-69
2023/01/13 02:25:57;;;;;;;;;;;10.70;99.90;;;;;;5073619;28;19961;-69
2023/01/13 02:28:29;;;;;;;;;;;10.70;99.90;;;;;;4995395;28;19917;-69
2023/01/13 02:33:44;;;;;;;;;;;10.60;99.90;;;;;;5073390;28;19962;-69
2023/01/13 02:36:24;;;;;;;;;;;10.50;99.90;;;;;;5071909;28;20313;-69
2023/01/13 02:38:55;;;;;;;;;;;10.60;99.90;;;;;;5073028;28;20376;-69
2023/01/13 02:44:19;;;;;;;;;;;10.60;99.90;;;;;;5078763;28;20022;-69
2023/01/13 02:46:50;;;;;;;;;;;10.70;99.90;;;;;;5076707;28;19916;-69
2023/01/13 02:49:26;;;;;;;;;;;10.60;99.90;;;;;;5077200;28;19916;-68
2023/01/13 02:51:53;;;;;;;;;;;10.80;99.90;;;;;;5077802;28;20250;-69
2023/01/13 02:54:25;;;;;;;;;;;10.80;99.90;;;;;;5077504;28;19953;-69
2023/01/13 02:56:52;;;;;;;;;;;10.90;99.90;;;;;;5076925;28;19999;-68
2023/01/13 02:59:18;;;;;;;;;;;10.90;99.90;;;;;;5077290;28;19908;-69
2023/01/13 03:01:44;;;;;;;;;;;10.90;99.90;;;;;;5077538;28;19915;-69
2023/01/13 03:04:10;;;;;;;;;;;11.00;99.90;;;;;;5077068;28;19908;-69
2023/01/13 03:07:00;;;;;;;;;;;10.90;99.90;;;;;;5076400;28;19966;-69
2023/01/13 03:09:35;;;;;;;;;;;10.90;99.90;;;;;;5075448;28;19909;-68
2023/01/13 03:12:21;;;;;;;;;;;11.00;99.90;;;;;;5075625;28;19908;-69
2023/01/13 03:14:55;;;;;;;;;;;11.00;99.90;;;;;;5075992;28;19922;-69
2023/01/13 03:17:25;;;;;;;;;;;11.10;99.90;;;;;;5076646;28;19909;-68
2023/01/13 03:20:02;;;;;;;;;;;11.00;99.90;;;;;;5076728;28;19912;-69
2023/01/13 03:22:35;;;;;;;;;;;11.10;99.90;;;;;;5075782;28;20387;-70
2023/01/13 03:25:00;;;;;;;;;;;11.20;99.90;;;;;;5076256;28;19908;-69
2023/01/13 03:27:34;;;;;;;;;;;11.20;99.90;;;;;;5076643;28;19912;-69
2023/01/13 03:30:05;;;;;;;;;;;11.20;99.90;;;;;;5075383;28;19908;-69
2023/01/13 03:32:30;;;;;;;;;;;11.20;99.90;;;;;;5075529;28;20015;-69
2023/01/13 03:35:01;;;;;;;;;;;11.30;99.90;;;;;;5076651;28;19943;-69
2023/01/13 03:37:31;;;;;;;;;;;11.20;99.90;;;;;;5075385;28;19908;-70
2023/01/13 03:39:59;;;;;;;;;;;11.20;99.90;;;;;;5074901;28;19916;-69
2023/01/13 03:42:27;;;;;;;;;;;11.10;99.90;;;;;;5076364;28;19908;-69
2023/01/13 03:45:06;;;;;;;;;;;11.20;99.90;;;;;;5075927;28;19908;-69
2023/01/13 03:47:35;;;;;;;;;;;11.20;99.90;;;;;;5075039;28;20394;-69
2023/01/13 03:50:11;;;;;;;;;;;11.10;99.90;;;;;;5074422;28;20457;-69
2023/01/13 03:52:40;;;;;;;;;;;11.10;99.90;;;;;;5073620;28;19999;-69
2023/01/13 03:55:08;;;;;;;;;;;11.10;99.90;;;;;;5076011;28;19961;-70
2023/01/13 03:57:35;;;;;;;;;;;11.10;99.90;;;;;;5076220;28;19924;-70
2023/01/13 04:00:02;;;;;;;;;;;11.20;99.90;;;;;;5076251;28;19908;-70
2023/01/13 04:02:47;;;;;;;;;;;11.20;99.90;;;;;;5076390;28;20288;-69
2023/01/13 04:05:13;;;;;;;;;;;11.20;99.90;;;;;;5075661;28;20400;-69
2023/01/13 04:07:38;;;;;;;;;;;11.20;99.90;;;;;;5074043;28;19999;-70
2023/01/13 04:10:05;;;;;;;;;;;11.20;99.90;;;;;;5075697;28;19915;-68
2023/01/13 04:15:19;;;;;;;;;;;11.30;99.90;;;;;;5076892;28;19962;-69
2023/01/13 04:17:45;;;;;;;;;;;11.20;99.90;;;;;;5077802;28;19916;-70
2023/01/13 04:20:10;;;;;;;;;;;11.30;99.90;;;;;;5077414;28;19908;-68
2023/01/13 04:22:36;;;;;;;;;;;11.30;99.90;;;;;;5075970;28;20365;-69
2023/01/13 04:25:01;;;;;;;;;;;11.20;99.90;;;;;;5075113;28;20008;-69
2023/01/13 04:27:27;;;;;;;;;;;11.20;99.90;;;;;;5075078;28;19923;-69
2023/01/13 04:29:52;;;;;;;;;;;11.20;99.90;;;;;;5075151;28;19909;-69
2023/01/13 04:32:18;;;;;;;;;;;11.20;99.90;;;;;;5075149;28;20508;-69
2023/01/13 04:34:43;;;;;;;;;;;11.20;99.90;;;;;;5073857;28;20387;-69
2023/01/13 04:37:09;;;;;;;;;;;11.20;99.90;;;;;;5074067;28;19908;-69
2023/01/13 04:39:34;;;;;;;;;;;11.10;99.90;;;;;;5074440;28;19916;-69
2023/01/13 04:42:01;;;;;;;;;;;11.10;99.90;;;;;;5075984;28;19909;-68
2023/01/13 04:44:27;;;;;;;;;;;11.20;99.90;;;;;;5075690;28;19915;-68
2023/01/13 04:46:52;;;;;;;;;;;11.20;99.90;;;;;;5074824;28;19917;-69
2023/01/13 04:49:18;;;;;;;;;;;11.10;99.90;;;;;;5075074;28;19908;-69
2023/01/13 04:51:43;;;;;;;;;;;11.10;99.90;;;;;;5074946;28;19909;-69
2023/01/13 04:54:10;;;;;;;;;;;11.20;99.90;;;;;;5073131;28;19908;-68
2023/01/13 04:56:35;;;;;;;;;;;11.10;99.90;;;;;;5073305;28;19916;-70
2023/01/13 04:59:01;;;;;;;;;;;11.10;99.90;;;;;;5074860;28;19974;-69
2023/01/13 05:01:27;;;;;;;;;;;11.10;99.90;;;;;;5075050;28;19983;-69
2023/01/13 05:03:52;;;;;;;;;;;11.20;99.90;;;;;;5074466;28;19909;-69
2023/01/13 05:06:17;;;;;;;;;;;11.10;99.90;;;;;;5074650;28;19915;-69
2023/01/13 05:08:43;;;;;;;;;;;11.10;99.90;;;;;;5074269;28;20030;-69
2023/01/13 05:19:20;;;;;;;;;;;11.10;99.90;;;;;;5074749;28;19916;-69
2023/01/13 05:27:14;;;;;;;;;;;11.20;99.90;;;;;;5074135;28;20392;-69
2023/01/13 05:29:39;;;;;;;;;;;11.20;99.90;;;;;;5072589;28;19909;-70
2023/01/13 05:32:07;;;;;;;;;;;11.10;99.90;;;;;;5074093;28;19908;-69
2023/01/13 05:34:32;;;;;;;;;;;11.00;99.90;;;;;;5074961;28;19999;-70
2023/01/13 05:36:58;;;;;;;;;;;11.10;99.90;;;;;;5073841;28;19948;-69
2023/01/13 05:39:23;;;;;;;;;;;11.00;99.90;;;;;;5073171;28;19916;-69
2023/01/13 05:44:35;;;;;;;;;;;11.00;99.90;;;;;;5075028;28;19914;-69
2023/01/13 05:47:01;;;;;;;;;;;11.00;99.90;;;;;;5072561;28;20360;-68
2023/01/13 05:49:26;;;;;;;;;;;11.00;99.90;;;;;;5074258;28;19908;-68
2023/01/13 05:51:52;;;;;;;;;;;11.00;99.90;;;;;;5081661;28;19951;-69
2023/01/13 05:54:17;;;;;;;;;;;11.10;99.90;;;;;;5079629;28;20012;-68
2023/01/13 05:56:43;;;;;;;;;;;11.10;99.90;;;;;;5094466;28;20260;-68
2023/01/13 05:59:08;;;;;;;;;;;11.10;99.90;;;;;;5078001;28;19987;-68
2023/01/13 06:01:35;;;;;;;;;;;11.20;99.90;;;;;;5071798;28;19909;-68
2023/01/13 06:04:01;;;;;;;;;;;11.10;99.90;;;;;;5073835;28;20023;-68
2023/01/13 06:06:26;;;;;;;;;;;11.20;99.90;;;;;;5072599;28;19940;-68
2023/01/13 06:08:52;;;;;;;;;;;11.20;99.90;;;;;;5072033;28;20357;-69
2023/01/13 06:11:17;;;;;;;;;;;11.20;99.90;;;;;;5072838;28;19909;-68
2023/01/13 06:13:43;;;;;;;;;;;11.30;99.90;;;;;;5073313;28;19909;-68
2023/01/13 06:16:09;;;;;;;;;;;11.30;99.90;;;;;;5072044;28;19988;-68
2023/01/13 06:18:34;;;;;;;;;;;11.30;99.90;;;;;;5072116;28;19957;-69
2023/01/13 06:21:00;;;;;;;;;;;11.20;99.90;;;;;;5075306;28;19908;-68
2023/01/13 06:23:25;;;;;;;;;;;11.20;99.90;;;;;;5073597;28;19909;-68
2023/01/13 06:25:54;;;;;;;;;;;11.20;99.90;;;;;;5073286;28;19913;-69
2023/01/13 06:28:19;;;;;;;;;;;11.20;99.90;;;;;;5073082;28;19919;-68
2023/01/13 06:30:49;;;;;;;;;;;11.30;99.90;;;;;;5073033;28;19995;-68
2023/01/13 06:33:18;;;;;;;;;;;11.20;99.90;;;;;;5072812;28;19913;-68
2023/01/13 06:35:47;;;;;;;;;;;11.30;99.90;;;;;;5073174;28;20003;-69
2023/01/13 06:38:15;;;;;;;;;;;11.10;99.90;;;;;;5071882;28;19962;-69
2023/01/13 06:40:41;;;;;;;;;;;11.20;99.90;;;;;;5072709;28;20012;-69
2023/01/13 06:43:15;;;;;;;;;;;11.20;99.90;;;;;;5088416;28;19908;-72
2023/01/13 06:45:43;;;;;;;;;;;11.20;99.90;;;;;;5080312;28;21763;-69
2023/01/13 06:48:08;;;;;;;;;;;11.20;99.90;;;;;;5075044;28;19924;-68
2023/01/13 06:50:34;;;;;;;;;;;11.20;99.90;;;;;;5072118;28;19908;-70
2023/01/13 06:52:59;;;;;;;;;;;11.20;99.90;;;;;;5073622;28;19908;-70
2023/01/13 06:55:24;;;;;;;;;;;11.20;99.90;;;;;;5073453;28;19958;-71
2023/01/13 06:57:54;;;;;;;;;;;11.30;99.90;;;;;;5073027;28;19912;-70
2023/01/13 07:00:20;;;;;;;;;;;11.20;99.90;;;;;;5073169;28;20286;-71
2023/01/13 07:02:46;;;;;;;;;;;11.20;99.90;;;;;;5073150;28;20353;-70
2023/01/13 07:05:11;;;;;;;;;;;11.20;99.90;;;;;;5072874;28;19913;-71
2023/01/13 07:07:37;;;;;;;;;;;11.30;99.90;;;;;;5086998;28;19999;-69
2023/01/13 07:10:03;;;;;;;;;;;11.30;99.90;;;;;;5071458;28;19958;-70
2023/01/13 07:12:28;;;;;;;;;;;11.20;99.90;;;;;;5072119;28;20360;-68
2023/01/13 07:17:58;;;;;;;;;;;11.30;99.90;;;;;;5011031;28;19972;-69
2023/01/13 07:20:23;;;;;;;;;;;11.20;99.90;;;;;;5027238;28;19909;-70
2023/01/13 07:22:52;;;;;;;;;;;11.10;99.90;;;;;;5030827;28;19909;-69
2023/01/13 07:25:18;;;;;;;;;;;11.10;99.90;;;;;;5032133;28;19920;-69
2023/01/13 07:27:43;;;;;;;;;;;11.10;99.90;;;;;;5034229;28;19914;-70
2023/01/13 07:30:09;;;;;;;;;;;11.20;99.90;;;;;;5035667;28;19966;-68
2023/01/13 07:32:34;;;;;;;;;;;11.20;99.90;;;;;;5034785;28;19948;-69
2023/01/13 07:35:04;;;;;;;;;;;11.10;99.90;;;;;;5034990;28;20370;-69
2023/01/13 07:37:33;;;;;;;;;;;11.00;99.90;;;;;;5034631;28;19910;-69
2023/01/13 07:39:58;;;;;;;;;;;10.80;99.90;;;;;;5034248;28;19916;-70
2023/01/13 07:45:08;;;;;;;;;;;10.30;99.90;;;;;;5034645;28;19928;-69
2023/01/13 07:47:33;;;;;;;;;;;10.10;99.90;;;;;;5034605;28;20340;-69
2023/01/13 07:49:59;;;;;;;;;;;9.90;99.90;;;;;;5076141;28;19939;-69
2023/01/13 07:52:24;;;;;;;;;;;9.70;99.90;;;;;;5075887;28;19912;-69
2023/01/13 07:54:50;;;;;;;;;;;9.50;99.90;;;;;;5075761;28;19915;-69
2023/01/13 07:57:15;;;;;;;;;;;9.50;99.90;;;;;;5073917;28;20356;-69
2023/01/13 07:59:41;;;;;;;;;;;9.40;99.90;;;;;;5075124;28;20382;-70
2023/01/13 08:02:09;;;;;;;;;;;9.50;99.90;;;;;;5074130;28;19970;-70
2023/01/13 08:04:35;;;;;;;;;;;9.50;99.90;;;;;;5076242;28;19958;-71
2023/01/13 08:07:00;;;;;;;;;;;9.50;99.90;;;;;;5074409;28;19912;-71
2023/01/13 08:09:26;;;;;;;;;;;9.50;99.90;;;;;;5075632;28;19995;-71
2023/01/13 08:14:39;;;;;;;;;;;9.50;99.90;;;;;;5090510;28;19916;-71
2023/01/13 08:17:08;;;;;;;;;;;9.50;99.90;;;;;;5096520;28;19912;-71
2023/01/13 08:19:34;;;;;;;;;;;9.50;99.90;;;;;;5096241;28;19912;-69
2023/01/13 08:21:59;;;;;;;;;;;9.50;99.90;;;;;;5076651;28;19932;-70
2023/01/13 08:24:25;;;;;;;;;;;9.50;99.90;;;;;;5073690;28;19999;-70
2023/01/13 08:26:50;;;;;;;;;;;9.60;99.90;;;;;;5074014;28;19953;-69
2023/01/13 08:29:16;;;;;;;;;;;9.50;99.90;;;;;;5090255;28;19916;-71
2023/01/13 08:31:41;;;;;;;;;;;9.50;99.90;;;;;;5075434;28;20317;-68
2023/01/13 08:34:07;;;;;;;;;;;9.60;99.90;;;;;;5078998;28;19916;-67
2023/01/13 08:36:32;;;;;;;;;;;9.60;99.90;;;;;;5081633;28;20308;-69
2023/01/13 08:38:58;;;;;;;;;;;9.70;99.90;;;;;;5075038;28;19931;-69
2023/01/13 08:44:08;;;;;;;;;;;9.70;99.90;;;;;;5088347;28;20300;-67
2023/01/13 08:46:34;;;;;;;;;;;9.70;99.90;;;;;;5074290;28;20007;-68
2023/01/13 08:48:59;;;;;;;;;;;9.70;99.90;;;;;;5088764;28;19923;-68
2023/01/13 08:51:24;;;;;;;;;;;9.60;99.90;;;;;;5094897;28;20281;-70
2023/01/13 08:53:50;;;;;;;;;;;9.60;99.90;;;;;;5094934;28;19952;-69
2023/01/13 08:56:15;;;;;;;;;;;9.60;99.90;;;;;;5094713;28;19992;-69
2023/01/13 08:58:41;;;;;;;;;;;9.80;99.90;;;;;;5094789;28;19918;-69
2023/01/13 09:01:07;;;;;;;;;;;9.90;99.90;;;;;;5087714;28;19954;-67
2023/01/13 09:03:32;;;;;;;;;;;9.70;99.90;;;;;;5081085;28;20377;-67
2023/01/13 09:05:58;;;;;;;;;;;9.80;99.90;;;;;;5094720;28;19930;-67
2023/01/13 09:08:23;;;;;;;;;;;9.90;99.90;;;;;;5092600;28;19960;-68
2023/01/13 09:10:49;;;;;;;;;;;9.90;99.90;;;;;;5081383;28;19916;-68
2023/01/13 09:13:15;;;;;;;;;;;9.90;99.90;;;;;;5083089;28;19912;-67
2023/01/13 09:15:43;;;;;;;;;;;9.90;99.90;;;;;;5092994;28;19919;-67
2023/01/13 09:18:09;;;;;;;;;;;9.80;99.90;;;;;;5074504;28;19923;-68
2023/01/13 09:20:34;;;;;;;;;;;9.80;99.90;;;;;;5089351;28;20404;-70
2023/01/13 09:23:00;;;;;;;;;;;9.90;99.90;;;;;;5071782;28;19920;-71
2023/01/13 09:25:25;;;;;;;;;;;9.90;99.90;;;;;;5072289;28;19995;-69
2023/01/13 09:27:51;;;;;;;;;;;9.90;99.90;;;;;;5072521;28;19916;-68
2023/01/13 09:30:16;;;;;;;;;;;9.90;99.90;;;;;;5070950;28;19999;-68
2023/01/13 09:32:42;;;;;;;;;;;9.90;99.90;;;;;;5075856;28;20380;-68
2023/01/13 09:35:08;;;;;;;;;;;9.90;99.90;;;;;;5092878;28;20347;-68
2023/01/13 09:37:34;;;;;;;;;;;9.90;99.90;;;;;;5095783;28;20011;-70
2023/01/13 09:40:01;;;;;;;;;;;10.00;99.90;;;;;;5080471;28;19909;-68
2023/01/13 09:45:35;;;;;;;;;;;10.10;99.90;;;;;;5075555;28;20418;-69
2023/01/13 09:48:05;;;;;;;;;;;10.10;99.90;;;;;;5076542;28;19913;-68
2023/01/13 09:50:37;;;;;;;;;;;10.20;99.90;;;;;;5072948;28;19909;-68
2023/01/13 09:53:04;;;;;;;;;;;10.30;99.90;;;;;;5090059;28;19908;-68
2023/01/13 09:55:35;;;;;;;;;;;10.40;99.90;;;;;;5085270;28;20011;-68
2023/01/13 09:58:02;;;;;;;;;;;10.40;99.90;;;;;;5073651;28;19916;-70
2023/01/13 10:00:35;;;;;;;;;;;10.50;99.90;;;;;;5076093;28;19908;-68
2023/01/13 10:03:19;;;;;;;;;;;10.60;99.90;;;;;;5093800;28;19915;-68
2023/01/13 10:06:07;;;;;;;;;;;10.80;99.90;;;;;;5074522;28;19958;-68
2023/01/13 10:08:37;;;;;;;;;;;11.00;99.90;;;;;;5071586;28;22383;-68
2023/01/13 10:13:51;;;;;;;;;;;10.90;99.90;;;;;;5073494;28;19958;-69
2023/01/13 10:16:45;;;;;;;;;;;10.80;99.90;;;;;;5073788;28;19908;-69
2023/01/13 10:19:15;;;;;;;;;;;10.80;99.90;;;;;;5059495;28;19909;-68
2023/01/13 10:21:54;;;;;;;;;;;10.70;99.90;;;;;;5078678;28;19908;-67
2023/01/13 10:24:35;;;;;;;;;;;10.60;99.90;;;;;;5083053;28;19956;-67
2023/01/13 10:27:00;;;;;;;;;;;10.50;99.90;;;;;;5081986;28;19915;-68
2023/01/13 10:29:27;;;;;;;;;;;10.50;99.90;;;;;;5081890;28;19908;-68
2023/01/13 10:31:53;;;;;;;;;;;10.60;99.90;;;;;;5074660;28;19908;-68
2023/01/13 10:34:20;;;;;;;;;;;10.50;99.90;;;;;;5075297;28;19916;-68
2023/01/13 10:36:55;;;;;;;;;;;10.50;99.90;;;;;;5086157;28;19915;-67
2023/01/13 10:39:21;;;;;;;;;;;10.60;99.90;;;;;;5094711;28;19915;-66
2023/01/13 10:41:46;;;;;;;;;;;10.60;99.90;;;;;;5075229;28;19909;-68
2023/01/13 10:44:15;;;;;;;;;;;10.50;99.90;;;;;;5085905;28;20352;-71
2023/01/13 10:46:54;;;;;;;;;;;10.40;99.90;;;;;;5092537;28;20016;-70
2023/01/13 10:49:23;;;;;;;;;;;10.50;99.90;;;;;;5082731;28;19919;-68
2023/01/13 10:51:48;;;;;;;;;;;10.70;99.90;;;;;;5085422;28;19908;-69
2023/01/13 10:54:19;;;;;;;;;;;10.90;99.90;;;;;;5083653;28;19916;-68
2023/01/13 10:56:44;;;;;;;;;;;10.90;99.90;;;;;;5076134;28;19916;-68
2023/01/13 10:59:25;;;;;;;;;;;10.90;99.90;;;;;;5073319;28;19996;-69
2023/01/13 11:02:13;;;;;;;;;;;11.10;99.90;;;;;;5082441;28;19908;-69
2023/01/13 11:05:02;;;;;;;;;;;11.20;99.90;;;;;;5095938;28;20357;-69
2023/01/13 11:07:35;;;;;;;;;;;11.20;99.90;;;;;;5082810;28;19919;-69
2023/01/13 11:10:19;;;;;;;;;;;11.20;99.90;;;;;;5089269;28;20005;-69
2023/01/13 11:12:49;;;;;;;;;;;11.10;99.90;;;;;;5077155;28;19908;-69
2023/01/13 11:15:18;;;;;;;;;;;11.00;99.90;;;;;;5076657;28;20010;-68
2023/01/13 11:17:59;;;;;;;;;;;11.10;99.90;;;;;;5077053;28;19915;-68
2023/01/13 11:20:35;;;;;;;;;;;11.10;99.90;;;;;;5076517;28;19955;-68
2023/01/13 11:23:06;;;;;;;;;;;11.00;99.90;;;;;;5079311;28;20379;-69
2023/01/13 11:25:41;;;;;;;;;;;10.90;99.90;;;;;;5092526;28;20430;-69
2023/01/13 11:28:25;;;;;;;;;;;10.90;99.90;;;;;;5079143;28;19908;-69
2023/01/13 11:30:57;;;;;;;;;;;10.80;99.90;;;;;;5076753;28;20330;-69
2023/01/13 11:33:29;;;;;;;;;;;10.80;99.90;;;;;;5078820;28;20098;-69
2023/01/13 11:36:10;;;;;;;;;;;10.90;99.90;;;;;;5081038;28;20285;-69
2023/01/13 11:38:36;;;;;;;;;;;11.00;99.90;;;;;;5080414;28;19908;-70
2023/01/13 11:41:06;;;;;;;;;;;11.00;99.90;;;;;;5081841;28;19913;-70
2023/01/13 11:43:37;;;;;;;;;;;11.10;99.90;;;;;;5079999;28;19955;-68
2023/01/13 11:46:04;;;;;;;;;;;11.00;99.90;;;;;;5080785;28;19908;-71
2023/01/13 11:48:31;;;;;;;;;;;11.00;99.90;;;;;;5080891;28;20487;-69
2023/01/13 11:51:09;;;;;;;;;;;10.90;99.90;;;;;;5082212;28;19915;-66
2023/01/13 11:54:06;;;;;;;;;;;10.50;99.90;;;;;;5084751;28;19908;-67
2023/01/13 11:56:37;;;;;;;;;;;10.30;99.90;;;;;;5041232;28;19932;-68
2023/01/13 11:59:09;;;;;;;;;;;9.90;99.90;;;;;;5039150;28;20322;-68
2023/01/13 12:01:37;;;;;;;;;;;9.70;99.90;;;;;;5022292;28;19917;-68
2023/01/13 12:04:08;;;;;;;;;;;9.50;99.90;;;;;;5056352;28;20508;-69
2023/01/13 12:06:34;;;;;;;;;;;9.40;99.90;;;;;;5055364;28;19912;-69
2023/01/13 12:09:12;;;;;;;;;;;9.40;99.90;;;;;;5056483;28;20014;-69
2023/01/13 12:14:44;;;;;;;;;;;9.40;99.90;;;;;;5055230;28;19915;-69
2023/01/13 12:17:31;;;;;;;;;;;9.50;99.90;;;;;;5037340;28;19915;-69
2023/01/13 12:20:00;;;;;;;;;;;9.50;99.90;;;;;;5054662;28;19916;-69
2023/01/13 12:22:27;;;;;;;;;;;9.50;99.90;;;;;;5053943;28;19952;-71
2023/01/13 12:25:04;;;;;;;;;;;9.60;99.90;;;;;;5037511;28;19909;-71
2023/01/13 12:27:50;;;;;;;;;;;9.70;99.90;;;;;;5053606;28;19920;-71
2023/01/13 12:30:15;;;;;;;;;;;9.80;99.90;;;;;;5040662;28;19932;-70
2023/01/13 12:32:41;;;;;;;;;;;10.00;99.90;;;;;;5075051;28;19924;-70
2023/01/13 12:35:18;;;;;;;;;;;10.10;99.90;;;;;;5076016;28;19909;-71
2023/01/13 12:37:48;;;;;;;;;;;10.20;99.90;;;;;;5074733;28;19916;-66
2023/01/13 12:40:20;;;;;;;;;;;10.20;99.90;;;;;;5074616;28;20396;-67
2023/01/13 12:45:35;;;;;;;;;;;10.10;99.90;;;;;;5083640;28;19919;-67
2023/01/13 12:48:01;;;;;;;;;;;10.10;99.90;;;;;;5072858;28;20011;-67
2023/01/13 12:50:26;;;;;;;;;;;10.00;99.90;;;;;;5082393;28;20012;-67
2023/01/13 12:52:53;;;;;;;;;;;10.00;99.90;;;;;;5074987;28;19919;-68
2023/01/13 12:55:18;;;;;;;;;;;10.00;99.90;;;;;;5074572;28;20009;-67
2023/01/13 12:58:14;;;;;;;;;;;10.20;99.90;;;;;;5073651;28;19916;-66
2023/01/13 13:00:39;;;;;;;;;;;10.00;99.90;;;;;;5012760;28;19917;-66
2023/01/13 13:03:13;;;;;;;;;;;9.90;99.90;;;;;;5026254;28;19913;-69
2023/01/13 13:05:47;;;;;;;;;;;9.80;99.90;;;;;;5032787;28;19928;-69
2023/01/13 13:08:21;;;;;;;;;;;9.80;99.90;;;;;;5032983;28;20000;-67
2023/01/13 13:10:59;;;;;;;;;;;9.70;99.90;;;;;;5031617;28;19956;-67
2023/01/13 13:13:45;;;;;;;;;;;9.60;99.90;;;;;;5015919;28;19909;-67
2023/01/13 13:16:25;;;;;;;;;;;9.50;99.90;;;;;;5016307;28;19909;-67
2023/01/13 13:18:51;;;;;;;;;;;9.40;99.90;;;;;;5032553;28;19916;-66
2023/01/13 13:21:17;;;;;;;;;;;9.40;99.90;;;;;;5016008;28;19932;-67
2023/01/13 13:24:02;;;;;;;;;;;9.40;99.90;;;;;;5032207;28;20365;-67
2023/01/13 13:26:30;;;;;;;;;;;9.30;99.90;;;;;;5032009;28;20314;-68
2023/01/13 13:28:55;;;;;;;;;;;9.40;99.90;;;;;;5032217;28;19957;-68
2023/01/13 13:31:27;;;;;;;;;;;9.40;99.90;;;;;;5032575;28;19979;-68
2023/01/13 13:34:12;;;;;;;;;;;9.40;99.90;;;;;;5032499;28;19956;-68
2023/01/13 13:36:57;;;;;;;;;;;9.40;99.90;;;;;;5044245;28;20046;-67
2023/01/13 13:47:42;;;;;;;;;;;9.70;99.90;;;;;;5074938;28;20331;-68
2023/01/13 13:50:13;;;;;;;;;;;9.70;99.90;;;;;;5074545;28;19908;-68
2023/01/13 13:52:41;;;;;;;;;;;9.70;99.90;;;;;;5073939;28;19908;-69
2023/01/13 13:55:17;;;;;;;;;;;9.80;99.90;;;;;;5074873;28;19909;-70
2023/01/13 13:57:44;;;;;;;;;;;9.90;99.90;;;;;;5090079;28;19916;-68
2023/01/13 14:00:13;;;;;;;;;;;9.90;99.90;;;;;;5090132;28;20424;-69
2023/01/13 14:02:39;;;;;;;;;;;9.90;99.90;;;;;;5091757;28;19909;-69
2023/01/13 14:05:16;;;;;;;;;;;9.80;99.90;;;;;;5075589;28;19915;-68
2023/01/13 14:07:42;;;;;;;;;;;9.70;99.90;;;;;;5083928;28;19923;-69
2023/01/13 14:10:12;;;;;;;;;;;9.60;99.90;;;;;;5073634;28;19909;-69
2023/01/13 14:12:39;;;;;;;;;;;9.60;99.90;;;;;;5073133;28;19989;-69
2023/01/13 14:15:04;;;;;;;;;;;9.50;99.90;;;;;;5077443;28;19973;-70
2023/01/13 14:17:30;;;;;;;;;;;9.50;99.90;;;;;;5074844;28;20276;-69
2023/01/13 14:20:00;;;;;;;;;;;9.50;99.90;;;;;;5074248;28;19930;-68
2023/01/13 14:22:26;;;;;;;;;;;9.60;99.90;;;;;;5074048;28;19915;-68
2023/01/13 14:24:56;;;;;;;;;;;9.70;99.90;;;;;;5074349;28;19908;-68
2023/01/13 14:27:22;;;;;;;;;;;9.70;99.90;;;;;;5072232;28;19920;-68
2023/01/13 14:29:51;;;;;;;;;;;9.70;99.90;;;;;;5073273;28;20319;-69
2023/01/13 14:32:18;;;;;;;;;;;9.70;99.90;;;;;;5073326;28;19916;-68
2023/01/13 14:34:44;;;;;;;;;;;9.70;99.90;;;;;;5073436;28;19909;-67
2023/01/13 14:37:25;;;;;;;;;;;9.60;99.90;;;;;;5077505;28;19996;-69
2023/01/13 14:39:50;;;;;;;;;;;9.60;99.90;;;;;;5078175;28;19916;-68
2023/01/13 14:42:16;;;;;;;;;;;9.60;99.90;;;;;;5078075;28;19908;-70
2023/01/13 14:44:45;;;;;;;;;;;9.60;99.90;;;;;;5084666;28;19911;-69
2023/01/13 14:47:38;;;;;;;;;;;9.50;99.90;;;;;;5077515;28;19908;-70
2023/01/13 14:50:05;;;;;;;;;;;9.50;99.90;;;;;;5074908;28;19952;-70
2023/01/13 14:52:33;;;;;;;;;;;9.50;99.90;;;;;;5083873;28;19958;-71
2023/01/13 14:55:05;;;;;;;;;;;9.50;99.90;;;;;;5080781;28;19930;-69
2023/01/13 14:57:38;;;;;;;;;;;9.40;99.90;;;;;;5080202;28;20000;-70
2023/01/13 15:00:13;;;;;;;;;;;9.40;99.90;;;;;;5078914;28;19908;-67
2023/01/13 15:02:49;;;;;;;;;;;9.50;99.90;;;;;;5078419;28;19909;-69
2023/01/13 15:05:17;;;;;;;;;;;9.40;99.90;;;;;;5076290;28;19909;-67
2023/01/13 15:07:53;;;;;;;;;;;9.40;99.90;;;;;;5077931;28;20349;-70
2023/01/13 15:10:21;;;;;;;;;;;9.40;99.90;;;;;;5076599;28;19915;-72
2023/01/13 15:12:49;;;;;;;;;;;9.40;99.90;;;;;;5079015;28;19908;-69
2023/01/13 15:15:26;;;;;;;;;;;9.40;99.90;;;;;;5077135;28;19912;-71
2023/01/13 15:17:52;;;;;;;;;;;9.40;99.90;;;;;;5077763;28;20081;-67
2023/01/13 15:20:18;;;;;;;;;;;9.40;99.90;;;;;;5090050;28;20021;-68
2023/01/13 15:22:44;;;;;;;;;;;9.50;99.90;;;;;;5098103;28;19915;-68
2023/01/13 15:25:10;;;;;;;;;;;9.50;99.90;;;;;;5099007;28;19991;-72
2023/01/13 15:27:36;;;;;;;;;;;9.50;99.90;;;;;;5098012;28;19912;-69
2023/01/13 15:30:18;;;;;;;;;;;9.50;99.90;;;;;;5100027;28;19908;-68